Time;durP1;ratioP1;P1;durP2;ratioP2;P2;SDS_P1;SDS_P2;PMS_P1;PMS_P2;Temp;Humidity;BMP_temperature;BMP_pressure;BME280_temperature;BME280_humidity;BME280_pressure;Samples;Min_cycle;Max_cycle;Signal;HPM_P1;HPM_P2
2024/01/26 00:00:05;;;;;;;228.73;82.75;;;8.20;99.90;;;;;;5083620;28;20051;-77
2024/01/26 00:02:30;;;;;;;261.88;87.20;;;8.30;99.90;;;;;;5086946;28;20509;-77
2024/01/26 00:04:56;;;;;;;256.48;89.97;;;8.30;99.90;;;;;;5069720;28;20044;-76
2024/01/26 00:07:22;;;;;;;259.92;94.30;;;8.30;99.90;;;;;;5085923;28;20040;-76
2024/01/26 00:09:47;;;;;;;269.00;96.05;;;8.30;99.90;;;;;;5086456;28;20036;-76
2024/01/26 00:12:13;;;;;;;260.13;88.75;;;8.30;99.90;;;;;;5084372;28;20078;-76
2024/01/26 00:14:39;;;;;;;265.52;96.75;;;8.30;99.90;;;;;;5085556;28;20040;-76
2024/01/26 00:17:04;;;;;;;292.45;95.50;;;8.40;99.90;;;;;;5082912;28;20621;-77
2024/01/26 00:19:30;;;;;;;242.85;92.28;;;8.40;99.90;;;;;;5084096;28;20067;-77
2024/01/26 00:21:56;;;;;;;272.27;92.80;;;8.40;99.90;;;;;;5076079;28;20885;-77
2024/01/26 00:24:22;;;;;;;293.90;95.90;;;8.40;99.90;;;;;;5068993;28;20079;-77
2024/01/26 00:26:47;;;;;;;264.67;92.43;;;8.40;99.90;;;;;;5084335;28;20068;-77
2024/01/26 00:29:14;;;;;;;320.25;99.45;;;8.40;99.90;;;;;;5084521;28;20038;-77
2024/01/26 00:31:39;;;;;;;240.45;89.50;;;8.40;99.90;;;;;;5086318;28;20117;-77
2024/01/26 00:34:05;;;;;;;308.42;104.70;;;8.50;99.90;;;;;;5079628;28;20131;-77
2024/01/26 00:36:31;;;;;;;277.08;94.30;;;8.50;99.90;;;;;;5086266;28;20055;-77
2024/01/26 00:38:56;;;;;;;258.35;94.65;;;8.50;99.90;;;;;;5079804;28;20492;-77
2024/01/26 00:41:22;;;;;;;286.65;98.53;;;8.50;99.90;;;;;;5085295;28;20055;-77
2024/01/26 00:43:47;;;;;;;245.32;94.20;;;8.50;99.90;;;;;;5068119;28;20062;-77
2024/01/26 00:46:14;;;;;;;260.05;95.65;;;8.50;99.90;;;;;;5082114;28;20041;-77
2024/01/26 00:48:40;;;;;;;233.50;94.18;;;8.50;99.90;;;;;;5079062;28;20114;-77
2024/01/26 00:51:06;;;;;;;260.20;95.25;;;8.50;99.90;;;;;;5082777;28;20139;-77
2024/01/26 00:53:32;;;;;;;242.75;92.18;;;8.60;99.90;;;;;;5076998;28;20674;-77
2024/01/26 00:55:58;;;;;;;265.15;91.22;;;8.60;99.90;;;;;;5084960;28;20131;-77
2024/01/26 00:58:24;;;;;;;237.27;90.15;;;8.60;99.90;;;;;;5084994;28;20074;-76
2024/01/26 01:00:50;;;;;;;266.00;92.97;;;8.60;99.90;;;;;;5085143;28;20492;-77
2024/01/26 01:03:15;;;;;;;269.20;92.18;;;8.60;99.90;;;;;;5084858;28;20101;-77
2024/01/26 01:05:42;;;;;;;230.02;87.55;;;8.60;99.90;;;;;;5082391;28;20052;-77
2024/01/26 01:08:08;;;;;;;236.77;88.25;;;8.60;99.90;;;;;;5085710;28;20048;-77
2024/01/26 01:10:34;;;;;;;221.50;88.70;;;8.60;99.90;;;;;;5085236;28;20046;-77
2024/01/26 01:13:04;;;;;;;207.52;83.85;;;8.60;99.90;;;;;;5084041;28;20429;-77
2024/01/26 01:15:30;;;;;;;215.98;85.82;;;8.70;99.90;;;;;;5065800;28;20036;-77
2024/01/26 01:17:57;;;;;;;212.43;83.38;;;8.70;99.90;;;;;;5089608;28;20055;-77
2024/01/26 01:20:23;;;;;;;223.85;83.18;;;8.70;99.90;;;;;;5089327;28;20047;-76
2024/01/26 01:22:48;;;;;;;212.63;85.97;;;8.70;99.90;;;;;;5084429;28;20146;-76
2024/01/26 01:25:14;;;;;;;228.80;85.07;;;8.70;99.90;;;;;;5076119;28;20496;-76
2024/01/26 01:27:40;;;;;;;224.20;83.45;;;8.70;99.90;;;;;;5086275;28;20062;-77
2024/01/26 01:30:07;;;;;;;214.85;87.35;;;8.70;99.90;;;;;;5078438;28;20040;-77
2024/01/26 01:32:34;;;;;;;212.02;86.45;;;8.80;99.90;;;;;;5090609;28;20047;-76
2024/01/26 01:35:00;;;;;;;218.88;81.10;;;8.80;99.90;;;;;;5085619;28;20570;-76
2024/01/26 01:37:26;;;;;;;214.80;88.88;;;8.70;99.90;;;;;;5083696;28;20755;-77
2024/01/26 01:39:51;;;;;;;227.05;85.57;;;8.80;99.90;;;;;;5088604;28;20071;-77
2024/01/26 01:42:17;;;;;;;241.25;87.50;;;8.80;99.90;;;;;;5087354;28;20052;-76
2024/01/26 01:44:45;;;;;;;215.18;84.47;;;8.80;99.90;;;;;;5095239;28;20048;-75
2024/01/26 01:47:12;;;;;;;224.15;86.07;;;8.80;99.90;;;;;;5086480;28;20055;-76
2024/01/26 01:49:39;;;;;;;218.10;84.53;;;8.80;99.90;;;;;;5082257;28;20040;-77
2024/01/26 01:52:07;;;;;;;209.65;83.10;;;8.80;99.90;;;;;;5084646;28;20067;-76
2024/01/26 01:54:33;;;;;;;204.57;80.82;;;8.80;99.90;;;;;;5089465;28;20123;-76
2024/01/26 01:57:02;;;;;;;215.13;88.57;;;8.80;99.90;;;;;;5086976;28;20540;-77
2024/01/26 01:59:28;;;;;;;195.32;82.60;;;8.80;99.90;;;;;;5088224;28;20051;-77
2024/01/26 02:01:54;;;;;;;186.02;82.80;;;8.80;99.90;;;;;;5082522;28;21169;-76
2024/01/26 02:04:19;;;;;;;184.43;79.20;;;8.90;99.90;;;;;;5089452;28;20210;-77
2024/01/26 02:06:56;;;;;;;184.10;78.82;;;8.90;99.90;;;;;;5088443;28;20047;-76
2024/01/26 02:09:22;;;;;;;180.45;77.95;;;8.90;99.90;;;;;;5082121;28;20048;-77
2024/01/26 02:11:48;;;;;;;195.68;82.00;;;8.90;99.90;;;;;;5088599;28;20044;-77
2024/01/26 02:14:14;;;;;;;194.57;81.07;;;8.90;99.90;;;;;;5083885;28;20703;-77
2024/01/26 02:16:50;;;;;;;183.30;76.47;;;8.90;99.90;;;;;;5087593;28;20527;-77
2024/01/26 02:19:16;;;;;;;173.88;74.88;;;8.90;99.90;;;;;;5069117;28;20096;-77
2024/01/26 02:21:42;;;;;;;169.13;75.07;;;8.90;99.90;;;;;;5095971;28;20032;-77
2024/01/26 02:24:08;;;;;;;178.70;78.38;;;9.00;99.90;;;;;;5086786;28;20048;-77
2024/01/26 02:26:34;;;;;;;179.95;76.63;;;9.00;99.90;;;;;;5086014;28;20052;-77
2024/01/26 02:28:59;;;;;;;183.35;75.97;;;9.00;99.90;;;;;;5079672;28;20051;-77
2024/01/26 02:31:25;;;;;;;174.48;72.18;;;9.00;99.90;;;;;;5086290;28;20047;-77
2024/01/26 02:33:51;;;;;;;163.60;70.00;;;9.00;99.90;;;;;;5087033;28;20171;-77
2024/01/26 02:36:17;;;;;;;173.13;72.30;;;9.00;99.90;;;;;;5081362;28;20048;-77
2024/01/26 02:38:43;;;;;;;164.60;71.03;;;9.00;99.90;;;;;;5091764;28;20493;-77
2024/01/26 02:41:08;;;;;;;171.43;73.60;;;9.00;99.90;;;;;;5088440;28;20131;-77
2024/01/26 02:43:34;;;;;;;159.98;71.65;;;9.00;99.90;;;;;;5088811;28;20043;-77
2024/01/26 02:45:59;;;;;;;147.77;66.50;;;9.00;99.90;;;;;;5081610;28;20047;-77
2024/01/26 02:48:25;;;;;;;136.18;64.15;;;9.00;99.90;;;;;;5081181;28;20047;-77
2024/01/26 02:50:51;;;;;;;140.52;67.47;;;9.00;99.90;;;;;;5079025;28;20120;-76
2024/01/26 02:53:16;;;;;;;143.20;63.47;;;9.10;99.90;;;;;;5085273;28;20040;-76
2024/01/26 02:55:42;;;;;;;136.13;63.92;;;9.10;99.90;;;;;;5085727;28;20492;-77
2024/01/26 02:58:07;;;;;;;127.50;64.18;;;9.10;99.90;;;;;;5087309;28;20076;-77
2024/01/26 03:00:33;;;;;;;137.25;60.63;;;9.10;99.90;;;;;;5087297;28;20044;-77
2024/01/26 03:02:58;;;;;;;131.02;64.10;;;9.20;99.90;;;;;;5088079;28;20051;-77
2024/01/26 03:05:24;;;;;;;117.00;58.35;;;9.20;99.90;;;;;;5084834;28;20089;-77
2024/01/26 03:07:50;;;;;;;123.45;60.38;;;9.20;99.90;;;;;;5087194;28;20112;-77
2024/01/26 03:10:15;;;;;;;122.88;58.92;;;9.20;99.90;;;;;;5081165;28;20086;-77
2024/01/26 03:12:41;;;;;;;120.55;58.08;;;9.20;99.90;;;;;;5059061;28;20127;-77
2024/01/26 03:15:07;;;;;;;117.78;58.53;;;9.20;99.90;;;;;;5086939;28;20136;-77
2024/01/26 03:17:32;;;;;;;125.53;62.33;;;9.20;99.90;;;;;;5079059;28;20079;-77
2024/01/26 03:19:58;;;;;;;120.55;60.40;;;9.20;99.90;;;;;;5083149;28;20044;-77
2024/01/26 03:22:24;;;;;;;123.75;59.35;;;9.20;99.90;;;;;;5069717;28;20096;-77
2024/01/26 03:24:49;;;;;;;109.10;54.33;;;9.20;99.90;;;;;;5088475;28;20043;-77
2024/01/26 03:27:15;;;;;;;103.70;56.75;;;9.20;99.90;;;;;;5088102;28;20044;-77
2024/01/26 03:29:41;;;;;;;107.63;56.28;;;9.20;99.90;;;;;;5082983;28;20044;-77
2024/01/26 03:32:06;;;;;;;105.85;55.13;;;9.20;99.90;;;;;;5076812;28;20123;-77
2024/01/26 03:34:32;;;;;;;103.60;54.83;;;9.30;99.90;;;;;;5086341;28;20135;-77
2024/01/26 03:36:58;;;;;;;113.30;58.10;;;9.30;99.90;;;;;;5086536;28;20048;-77
2024/01/26 03:39:23;;;;;;;116.40;57.33;;;9.30;99.90;;;;;;5082227;28;20052;-77
2024/01/26 03:41:49;;;;;;;123.60;59.58;;;9.30;99.90;;;;;;5085077;28;20043;-77
2024/01/26 03:44:15;;;;;;;116.43;59.10;;;9.30;99.90;;;;;;5086478;28;20088;-77
2024/01/26 03:46:42;;;;;;;122.78;60.60;;;9.30;99.90;;;;;;5085910;28;20052;-77
2024/01/26 03:49:09;;;;;;;113.47;57.22;;;9.30;99.90;;;;;;5087241;28;20553;-77
2024/01/26 03:51:35;;;;;;;111.88;56.40;;;9.30;99.90;;;;;;5080900;28;20043;-77
2024/01/26 03:54:01;;;;;;;115.90;56.67;;;9.30;99.90;;;;;;5088049;28;20136;-77
2024/01/26 03:56:27;;;;;;;117.78;59.13;;;9.30;99.90;;;;;;5084461;28;20675;-77
2024/01/26 03:58:53;;;;;;;115.20;57.30;;;9.30;99.90;;;;;;5086578;28;20047;-77
2024/01/26 04:01:20;;;;;;;110.55;55.45;;;9.30;99.90;;;;;;5085993;28;20080;-77
2024/01/26 04:03:46;;;;;;;124.45;59.25;;;9.30;99.90;;;;;;5087708;28;20051;-77
2024/01/26 04:06:12;;;;;;;116.60;54.47;;;9.30;99.90;;;;;;5084817;28;20047;-77
2024/01/26 04:08:38;;;;;;;124.18;58.13;;;9.30;99.90;;;;;;5080475;28;20480;-77
2024/01/26 04:11:04;;;;;;;115.43;55.90;;;9.30;99.90;;;;;;5074109;28;20083;-77
2024/01/26 04:13:30;;;;;;;115.97;56.13;;;9.30;99.90;;;;;;5080695;28;20084;-77
2024/01/26 04:15:55;;;;;;;123.68;59.15;;;9.30;99.90;;;;;;5077758;28;20713;-77
2024/01/26 04:18:21;;;;;;;122.28;56.22;;;9.40;99.90;;;;;;5068389;28;20513;-77
2024/01/26 04:20:48;;;;;;;115.68;56.25;;;9.40;99.90;;;;;;5075604;28;20473;-77
2024/01/26 04:23:15;;;;;;;125.35;58.25;;;9.40;99.90;;;;;;5070321;28;20093;-77
2024/01/26 04:25:40;;;;;;;137.98;61.45;;;9.40;99.90;;;;;;5081368;28;20036;-77
2024/01/26 04:28:06;;;;;;;120.93;58.85;;;9.40;99.90;;;;;;5085260;28;20051;-77
2024/01/26 04:30:32;;;;;;;126.40;58.92;;;9.40;99.90;;;;;;5079231;28;20133;-77
2024/01/26 04:32:59;;;;;;;125.18;58.35;;;9.40;99.90;;;;;;5068756;28;20056;-77
2024/01/26 04:35:25;;;;;;;121.30;56.50;;;9.40;99.90;;;;;;5086795;28;20101;-77
2024/01/26 04:37:51;;;;;;;122.45;58.53;;;9.40;99.90;;;;;;5078162;28;20040;-77
2024/01/26 04:40:19;;;;;;;131.20;59.92;;;9.50;99.90;;;;;;5094195;28;20048;-77
2024/01/26 04:42:44;;;;;;;110.80;56.15;;;9.50;99.90;;;;;;5084564;28;20091;-77
2024/01/26 04:45:10;;;;;;;130.98;60.53;;;9.50;99.90;;;;;;5084398;28;20472;-77
2024/01/26 04:47:36;;;;;;;116.47;58.10;;;9.50;99.90;;;;;;5084778;28;20048;-77
2024/01/26 04:50:02;;;;;;;121.85;57.63;;;9.50;99.90;;;;;;5089670;28;20044;-77
2024/01/26 04:52:28;;;;;;;123.53;57.05;;;9.50;99.90;;;;;;5084926;28;20504;-77
2024/01/26 04:54:54;;;;;;;117.38;56.75;;;9.50;99.90;;;;;;5084112;28;20063;-77
2024/01/26 04:57:21;;;;;;;121.18;57.20;;;9.50;99.90;;;;;;5087108;28;20079;-77
2024/01/26 04:59:46;;;;;;;124.60;59.22;;;9.50;99.90;;;;;;5084252;28;20040;-77
2024/01/26 05:02:12;;;;;;;114.22;56.15;;;9.50;99.90;;;;;;5082455;28;20050;-77
2024/01/26 05:04:38;;;;;;;115.47;56.40;;;9.50;99.90;;;;;;5071130;28;20040;-77
2024/01/26 05:07:03;;;;;;;114.90;55.83;;;9.60;99.90;;;;;;5086390;28;20045;-77
2024/01/26 05:09:29;;;;;;;118.18;56.78;;;9.60;99.90;;;;;;5086044;28;20051;-77
2024/01/26 05:11:55;;;;;;;124.22;58.78;;;9.60;99.90;;;;;;5082085;28;20052;-77
2024/01/26 05:14:22;;;;;;;138.32;59.75;;;9.60;99.90;;;;;;5087160;28;20374;-77
2024/01/26 05:16:47;;;;;;;114.47;59.03;;;9.60;99.90;;;;;;5089417;28;20080;-77
2024/01/26 05:19:13;;;;;;;115.15;59.08;;;9.70;99.90;;;;;;5089068;28;20497;-77
2024/01/26 05:21:42;;;;;;;118.82;59.55;;;9.60;99.90;;;;;;5081209;28;20061;-77
2024/01/26 05:24:08;;;;;;;116.85;57.90;;;9.70;99.90;;;;;;5087826;28;20054;-77
2024/01/26 05:26:37;;;;;;;110.15;57.65;;;9.70;99.90;;;;;;5087364;28;20044;-77
2024/01/26 05:29:03;;;;;;;128.18;59.30;;;9.70;99.90;;;;;;5085823;28;20044;-78
2024/01/26 05:31:29;;;;;;;126.80;60.22;;;9.70;99.90;;;;;;5083770;28;20055;-78
2024/01/26 05:33:54;;;;;;;120.75;58.70;;;9.80;99.90;;;;;;5086020;28;20048;-78
2024/01/26 05:36:20;;;;;;;131.18;64.50;;;9.80;99.90;;;;;;5084278;28;20110;-78
2024/01/26 05:38:46;;;;;;;123.65;60.45;;;9.80;99.90;;;;;;5084054;28;20052;-78
2024/01/26 05:41:12;;;;;;;119.90;59.75;;;9.80;99.90;;;;;;5082976;28;20044;-77
2024/01/26 05:43:39;;;;;;;124.72;63.03;;;9.80;99.90;;;;;;5086891;28;20127;-78
2024/01/26 05:46:05;;;;;;;111.18;57.30;;;9.90;99.90;;;;;;5082067;28;20059;-78
2024/01/26 05:48:31;;;;;;;112.80;60.10;;;9.90;99.90;;;;;;5080125;28;20059;-78
2024/01/26 05:50:57;;;;;;;108.07;55.63;;;9.90;99.90;;;;;;5086879;28;20044;-78
2024/01/26 05:53:22;;;;;;;111.38;59.38;;;9.90;99.90;;;;;;5083703;28;20054;-78
2024/01/26 05:55:48;;;;;;;111.70;58.92;;;10.00;99.90;;;;;;5060339;28;20097;-78
2024/01/26 05:58:17;;;;;;;103.05;56.20;;;10.00;99.90;;;;;;5054755;28;20059;-78
2024/01/26 06:00:43;;;;;;;;;;;10.00;99.90;;;;;;5068250;28;20083;-78
2024/01/26 06:03:08;;;;;;;103.80;56.17;;;10.00;99.90;;;;;;5067332;28;20032;-77
2024/01/26 06:05:34;;;;;;;101.05;52.83;;;10.00;99.90;;;;;;5069368;28;20049;-78
2024/01/26 06:08:00;;;;;;;101.45;54.92;;;10.10;99.90;;;;;;5075253;28;20051;-77
2024/01/26 06:10:25;;;;;;;106.63;53.10;;;10.00;99.90;;;;;;5088968;28;20142;-77
2024/01/26 06:12:51;;;;;;;92.55;50.88;;;10.10;99.90;;;;;;5086112;28;20416;-82
2024/01/26 06:15:17;;;;;;;95.53;51.80;;;10.10;99.90;;;;;;5087041;28;20036;-78
2024/01/26 06:17:43;;;;;;;105.97;54.58;;;10.10;99.90;;;;;;5077464;28;20052;-78
2024/01/26 06:20:11;;;;;;;97.85;50.25;;;10.10;99.90;;;;;;5082023;28;20047;-79
2024/01/26 06:22:37;;;;;;;90.75;47.78;;;10.10;99.90;;;;;;5070860;28;20131;-78
2024/01/26 06:25:03;;;;;;;103.80;52.55;;;10.10;99.90;;;;;;5077185;28;20056;-78
2024/01/26 06:27:28;;;;;;;95.18;48.03;;;10.10;99.90;;;;;;5090262;28;20386;-77
2024/01/26 06:29:54;;;;;;;93.15;49.00;;;10.20;99.90;;;;;;5078334;28;20045;-76
2024/01/26 06:32:20;;;;;;;95.63;48.35;;;10.10;99.90;;;;;;5087504;28;20051;-77
2024/01/26 06:34:46;;;;;;;95.10;47.63;;;10.10;99.90;;;;;;5091888;28;20157;-76
2024/01/26 06:37:12;;;;;;;90.57;46.35;;;10.20;99.90;;;;;;5078504;28;20100;-76
2024/01/26 06:39:38;;;;;;;100.15;48.90;;;10.20;99.90;;;;;;5082313;28;20100;-76
2024/01/26 06:42:04;;;;;;;89.07;45.35;;;10.20;99.90;;;;;;5079230;28;20863;-77
2024/01/26 06:44:29;;;;;;;92.32;45.50;;;10.20;99.90;;;;;;5080819;28;20036;-76
2024/01/26 06:46:55;;;;;;;84.47;43.67;;;10.20;99.90;;;;;;5066994;28;20147;-76
2024/01/26 06:49:20;;;;;;;88.88;45.08;;;10.20;99.90;;;;;;5075905;28;20047;-76
2024/01/26 06:51:46;;;;;;;87.32;44.10;;;10.20;99.90;;;;;;5081233;28;20048;-76
2024/01/26 06:54:12;;;;;;;76.82;40.20;;;10.20;99.90;;;;;;5076440;28;20084;-76
2024/01/26 06:56:37;;;;;;;88.45;44.28;;;10.10;99.90;;;;;;5076531;28;20051;-76
2024/01/26 06:59:03;;;;;;;75.50;39.35;;;10.10;99.90;;;;;;5075273;28;20036;-76
2024/01/26 07:01:30;;;;;;;80.63;39.33;;;10.20;99.90;;;;;;5082126;28;20032;-76
2024/01/26 07:03:57;;;;;;;78.95;39.35;;;10.20;99.90;;;;;;5074877;28;20541;-77
2024/01/26 07:06:22;;;;;;;73.93;38.78;;;10.20;99.90;;;;;;5079821;28;20048;-77
2024/01/26 07:08:48;;;;;;;68.03;36.55;;;10.20;99.90;;;;;;5058702;28;20644;-77
2024/01/26 07:11:14;;;;;;;68.15;36.78;;;10.20;99.90;;;;;;5077795;28;20119;-78
2024/01/26 07:13:40;;;;;;;63.65;33.30;;;10.20;99.90;;;;;;5073828;28;20087;-77
2024/01/26 07:16:06;;;;;;;64.63;33.17;;;10.20;99.90;;;;;;5078308;28;20126;-78
2024/01/26 07:18:32;;;;;;;65.78;33.70;;;10.20;99.90;;;;;;5065536;28;20052;-77
2024/01/26 07:20:58;;;;;;;55.88;31.25;;;10.20;99.90;;;;;;5077412;28;20115;-77
2024/01/26 07:23:24;;;;;;;69.57;33.00;;;10.20;99.90;;;;;;5066819;28;20174;-77
2024/01/26 07:25:49;;;;;;;60.85;31.20;;;10.30;99.90;;;;;;5101936;28;20053;-77
2024/01/26 07:28:15;;;;;;;55.90;29.90;;;10.20;99.90;;;;;;5084540;28;20040;-77
2024/01/26 07:30:40;;;;;;;51.53;28.70;;;10.30;99.90;;;;;;5087706;28;20043;-78
2024/01/26 07:33:06;;;;;;;58.67;30.25;;;10.30;99.90;;;;;;5086121;28;20044;-78
2024/01/26 07:35:32;;;;;;;44.08;25.45;;;10.30;99.90;;;;;;5056588;28;20048;-78
2024/01/26 07:37:58;;;;;;;53.08;27.33;;;10.30;99.90;;;;;;5082898;28;20398;-78
2024/01/26 07:40:23;;;;;;;47.72;26.77;;;10.30;99.90;;;;;;5071006;28;20047;-77
2024/01/26 07:42:49;;;;;;;45.63;25.77;;;10.30;99.90;;;;;;5067219;28;20051;-78
2024/01/26 07:45:14;;;;;;;47.88;25.90;;;10.30;99.90;;;;;;5074597;28;20047;-78
2024/01/26 07:47:41;;;;;;;42.42;26.60;;;10.30;99.90;;;;;;5076998;28;20301;-78
2024/01/26 07:50:09;;;;;;;40.10;24.00;;;10.30;99.90;;;;;;5081900;28;20130;-78
2024/01/26 07:52:34;;;;;;;43.45;23.42;;;10.40;99.90;;;;;;5080084;28;20043;-78
2024/01/26 07:55:00;;;;;;;45.63;26.05;;;10.30;99.90;;;;;;5078362;28;20052;-80
2024/01/26 07:57:26;;;;;;;38.75;23.08;;;10.30;99.90;;;;;;5081129;28;20037;-78
2024/01/26 07:59:52;;;;;;;47.55;22.48;;;10.30;99.90;;;;;;5073446;28;20083;-78
2024/01/26 08:02:17;;;;;;;40.13;21.60;;;10.30;99.90;;;;;;5076842;28;20082;-78
2024/01/26 08:04:43;;;;;;;29.85;18.85;;;10.30;99.90;;;;;;5085352;28;20163;-79
2024/01/26 08:07:09;;;;;;;38.40;20.60;;;10.30;99.90;;;;;;5083262;28;20059;-78
2024/01/26 08:09:35;;;;;;;33.95;18.10;;;10.30;99.90;;;;;;5061633;28;20055;-78
2024/01/26 08:12:00;;;;;;;31.05;19.33;;;10.30;99.90;;;;;;5070004;28;20110;-78
2024/01/26 08:14:26;;;;;;;36.72;19.95;;;10.40;99.90;;;;;;5076753;28;20037;-76
2024/01/26 08:16:52;;;;;;;36.72;20.08;;;10.40;99.90;;;;;;5072177;28;20098;-76
2024/01/26 08:19:17;;;;;;;33.72;19.75;;;10.40;99.90;;;;;;5084056;28;20082;-76
2024/01/26 08:21:43;;;;;;;38.80;20.35;;;10.40;99.90;;;;;;5083372;28;20474;-76
2024/01/26 08:24:09;;;;;;;35.60;19.77;;;10.40;99.90;;;;;;5084118;28;20059;-76
2024/01/26 08:26:35;;;;;;;36.65;19.75;;;10.40;99.90;;;;;;5079426;28;20069;-76
2024/01/26 08:29:01;;;;;;;32.60;17.33;;;10.40;99.90;;;;;;5086344;28;20039;-76
2024/01/26 08:31:27;;;;;;;38.72;21.10;;;10.40;99.90;;;;;;5086779;28;20048;-76
2024/01/26 08:33:53;;;;;;;33.17;18.35;;;10.40;99.90;;;;;;5075931;28;20421;-76
2024/01/26 08:36:19;;;;;;;37.30;19.35;;;10.40;99.90;;;;;;5086824;28;20139;-76
2024/01/26 08:38:46;;;;;;;28.42;17.77;;;10.40;99.90;;;;;;5068565;28;20119;-77
2024/01/26 08:41:11;;;;;;;34.97;19.08;;;10.40;99.90;;;;;;5077781;28;20048;-77
2024/01/26 08:43:37;;;;;;;28.65;16.92;;;10.40;99.90;;;;;;5081406;28;20093;-77
2024/01/26 08:46:03;;;;;;;25.75;16.35;;;10.40;99.90;;;;;;5082255;28;20052;-77
2024/01/26 08:48:29;;;;;;;29.73;17.25;;;10.50;99.90;;;;;;5084986;28;20109;-76
2024/01/26 08:50:55;;;;;;;31.95;16.85;;;10.50;99.90;;;;;;5083537;28;20052;-77
2024/01/26 08:53:20;;;;;;;30.73;18.58;;;10.50;99.90;;;;;;5084542;28;20911;-77
2024/01/26 08:55:46;;;;;;;36.67;19.20;;;10.50;99.90;;;;;;5086647;28;20491;-77
2024/01/26 08:58:12;;;;;;;36.97;18.98;;;10.60;99.90;;;;;;5082716;28;20075;-77
2024/01/26 09:00:37;;;;;;;38.65;22.05;;;10.60;99.90;;;;;;5077248;28;20044;-76
2024/01/26 09:03:04;;;;;;;34.90;21.75;;;10.60;99.90;;;;;;5074368;28;20044;-76
2024/01/26 09:05:30;;;;;;;36.88;20.92;;;10.60;99.90;;;;;;5091100;28;20079;-76
2024/01/26 09:07:56;;;;;;;39.00;23.65;;;10.70;99.90;;;;;;5076220;28;20084;-76
2024/01/26 09:10:24;;;;;;;39.40;24.30;;;10.70;99.90;;;;;;5081242;28;20052;-76
2024/01/26 09:12:50;;;;;;;41.67;23.95;;;10.70;99.90;;;;;;5081780;28;20052;-76
2024/01/26 09:15:15;;;;;;;45.03;23.85;;;10.70;99.90;;;;;;5081377;28;20048;-76
2024/01/26 09:17:41;;;;;;;45.53;24.40;;;10.70;99.90;;;;;;5076379;28;20128;-76
2024/01/26 09:20:07;;;;;;;40.65;23.08;;;10.80;99.90;;;;;;5075728;28;20048;-76
2024/01/26 09:22:33;;;;;;;42.50;24.98;;;10.80;99.90;;;;;;5086556;28;20046;-76
2024/01/26 09:24:59;;;;;;;46.10;24.45;;;10.80;99.90;;;;;;5084426;28;20409;-76
2024/01/26 09:27:25;;;;;;;46.97;25.80;;;10.80;99.90;;;;;;5079797;28;20074;-75
2024/01/26 09:29:51;;;;;;;45.15;24.92;;;10.80;99.90;;;;;;5073018;28;20048;-76
2024/01/26 09:32:17;;;;;;;42.88;23.50;;;10.80;99.90;;;;;;5070698;28;20091;-75
2024/01/26 09:34:44;;;;;;;36.70;19.50;;;10.80;99.90;;;;;;5088696;28;20044;-75
2024/01/26 09:37:09;;;;;;;41.03;21.70;;;10.80;99.90;;;;;;5077799;28;20413;-76
2024/01/26 09:39:35;;;;;;;30.98;16.85;;;10.80;99.90;;;;;;5087092;28;20066;-76
2024/01/26 09:42:02;;;;;;;16.40;7.68;;;10.80;99.90;;;;;;5071737;28;20055;-77
2024/01/26 09:44:27;;;;;;;16.10;5.78;;;10.70;99.90;;;;;;5080799;28;20047;-77
2024/01/26 09:46:54;;;;;;;7.40;3.80;;;10.50;99.90;;;;;;5092525;28;20048;-76
2024/01/26 09:49:20;;;;;;;7.72;2.45;;;10.30;99.90;;;;;;5063417;28;20121;-76
2024/01/26 09:51:46;;;;;;;9.30;1.88;;;10.20;99.90;;;;;;5076687;28;20093;-76
2024/01/26 09:54:13;;;;;;;5.93;2.35;;;10.00;99.90;;;;;;5088887;28;20059;-76
2024/01/26 09:56:39;;;;;;;4.25;2.38;;;9.90;99.90;;;;;;5088197;28;20058;-76
2024/01/26 09:59:07;;;;;;;7.75;2.92;;;9.80;99.90;;;;;;5085389;28;20051;-75
2024/01/26 10:01:34;;;;;;;7.38;2.53;;;9.70;99.90;;;;;;5087776;28;20052;-75
2024/01/26 10:04:01;;;;;;;5.55;3.05;;;9.60;99.90;;;;;;5080156;28;20056;-76
2024/01/26 10:06:27;;;;;;;15.48;3.35;;;9.60;99.90;;;;;;5087806;28;20044;-76
2024/01/26 10:08:52;;;;;;;10.85;2.63;;;9.60;99.90;;;;;;5084371;28;20101;-76
2024/01/26 10:11:18;;;;;;;15.40;3.28;;;9.60;99.90;;;;;;5083433;28;20052;-76
2024/01/26 10:13:44;;;;;;;10.48;3.63;;;9.50;99.90;;;;;;5087333;28;20036;-76
2024/01/26 10:16:12;;;;;;;11.93;3.22;;;9.50;99.90;;;;;;5086396;28;20098;-76
2024/01/26 10:18:55;;;;;;;19.15;3.92;;;9.40;99.90;;;;;;5086532;28;20155;-76
2024/01/26 10:21:22;;;;;;;18.75;5.57;;;9.40;99.90;;;;;;5081048;28;20763;-75
2024/01/26 10:23:48;;;;;;;29.00;5.40;;;9.20;99.90;;;;;;5079705;28;20485;-76
2024/01/26 10:26:14;;;;;;;22.52;5.57;;;9.20;99.90;;;;;;5086816;28;20043;-76
2024/01/26 10:28:40;;;;;;;30.23;5.60;;;9.10;99.90;;;;;;5086423;28;20455;-75
2024/01/26 10:31:06;;;;;;;30.70;5.90;;;9.10;99.90;;;;;;5088976;28;20040;-75
2024/01/26 10:33:32;;;;;;;31.00;6.53;;;9.10;99.90;;;;;;5083881;28;20048;-75
2024/01/26 10:36:00;;;;;;;36.53;7.50;;;9.00;99.90;;;;;;5089356;28;20048;-75
2024/01/26 10:38:28;;;;;;;27.98;7.35;;;9.00;99.90;;;;;;5088478;28;20393;-75
2024/01/26 10:41:04;;;;;;;26.40;6.15;;;8.90;99.90;;;;;;5087549;28;20052;-76
2024/01/26 10:43:33;;;;;;;41.50;9.45;;;8.90;99.90;;;;;;5086091;28;20060;-75
2024/01/26 10:46:01;;;;;;;31.52;7.97;;;8.90;99.90;;;;;;5082391;28;20032;-76
2024/01/26 10:48:28;;;;;;;28.98;5.90;;;8.80;99.90;;;;;;5072778;28;20051;-76
2024/01/26 10:50:55;;;;;;;36.90;7.93;;;8.80;99.90;;;;;;5084692;28;20050;-75
2024/01/26 10:53:21;;;;;;;40.05;8.40;;;8.80;99.90;;;;;;5083483;28;20075;-75
2024/01/26 10:55:49;;;;;;;36.65;7.78;;;8.70;99.90;;;;;;5086100;28;20044;-76
2024/01/26 10:58:15;;;;;;;33.95;7.35;;;8.70;99.90;;;;;;5086749;28;20505;-76
2024/01/26 11:00:41;;;;;;;46.63;8.48;;;8.60;99.90;;;;;;5086546;28;20070;-76
2024/01/26 11:03:09;;;;;;;40.85;8.23;;;8.60;99.90;;;;;;5082630;28;20060;-76
2024/01/26 11:05:35;;;;;;;47.65;8.68;;;8.60;99.90;;;;;;5092468;28;20065;-75
2024/01/26 11:08:09;;;;;;;40.92;8.70;;;8.60;99.90;;;;;;5085504;28;20488;-74
2024/01/26 11:10:35;;;;;;;52.38;9.30;;;8.60;99.90;;;;;;5084542;28;20048;-75
2024/01/26 11:13:03;;;;;;;29.58;7.95;;;8.50;99.90;;;;;;5087406;28;20446;-76
2024/01/26 11:15:29;;;;;;;49.07;9.47;;;8.50;99.90;;;;;;5086480;28;20495;-75
2024/01/26 11:17:56;;;;;;;38.65;9.27;;;8.50;99.90;;;;;;5085176;28;20052;-75
2024/01/26 11:20:35;;;;;;;39.75;8.80;;;8.50;99.90;;;;;;5085798;28;20127;-75
2024/01/26 11:23:06;;;;;;;43.97;9.15;;;8.50;99.90;;;;;;5086008;28;20058;-75
2024/01/26 11:25:40;;;;;;;41.28;9.02;;;8.50;99.90;;;;;;5087581;28;20105;-75
2024/01/26 11:28:06;;;;;;;65.05;10.45;;;8.50;99.90;;;;;;5073187;28;20501;-75
2024/01/26 11:30:32;;;;;;;45.35;8.93;;;8.40;99.90;;;;;;5085271;28;20047;-75
2024/01/26 11:32:58;;;;;;;51.78;9.90;;;8.40;99.90;;;;;;5086969;28;20170;-75
2024/01/26 11:35:25;;;;;;;40.58;8.70;;;8.40;99.90;;;;;;5082109;28;20063;-74
2024/01/26 11:37:52;;;;;;;39.20;9.52;;;8.30;99.90;;;;;;5086658;28;20060;-75
2024/01/26 11:40:23;;;;;;;40.70;7.95;;;8.40;99.90;;;;;;5085749;28;20139;-75
2024/01/26 11:42:51;;;;;;;34.00;8.50;;;8.30;99.90;;;;;;5077556;28;20108;-74
2024/01/26 11:45:42;;;;;;;41.63;8.13;;;8.40;99.90;;;;;;5081273;28;20051;-74
2024/01/26 11:48:08;;;;;;;42.67;9.30;;;8.40;99.90;;;;;;5081656;28;20116;-74
2024/01/26 11:50:36;;;;;;;49.40;8.57;;;8.40;99.90;;;;;;5083267;28;20074;-74
2024/01/26 11:53:03;;;;;;;47.17;8.57;;;8.40;99.90;;;;;;5081665;28;20044;-74
2024/01/26 11:55:29;;;;;;;40.53;9.52;;;8.40;99.90;;;;;;5085069;28;20052;-74
2024/01/26 11:57:55;;;;;;;43.45;7.95;;;8.40;99.90;;;;;;5080333;28;20450;-74
2024/01/26 12:00:21;;;;;;;47.38;8.35;;;8.40;99.90;;;;;;5079545;28;20123;-74
2024/01/26 12:02:47;;;;;;;51.35;8.93;;;8.30;99.90;;;;;;5085832;28;20060;-74
2024/01/26 12:05:15;;;;;;;42.55;7.97;;;8.30;99.90;;;;;;5077862;28;20127;-74
2024/01/26 12:07:41;;;;;;;47.75;7.10;;;8.30;99.90;;;;;;5085662;28;20101;-75
2024/01/26 12:10:08;;;;;;;38.95;8.23;;;8.30;99.90;;;;;;5065778;28;20036;-74
2024/01/26 12:12:34;;;;;;;34.95;8.07;;;8.30;99.90;;;;;;5087658;28;20052;-74
2024/01/26 12:15:04;;;;;;;37.92;7.30;;;8.30;99.90;;;;;;5085642;28;20056;-74
2024/01/26 12:17:31;;;;;;;26.77;6.60;;;8.30;99.90;;;;;;5079812;28;20062;-74
2024/01/26 12:19:56;;;;;;;40.53;6.70;;;8.20;99.90;;;;;;5074990;28;20132;-74
2024/01/26 12:22:22;;;;;;;37.08;6.72;;;8.20;99.90;;;;;;5085431;28;20127;-74
2024/01/26 12:24:49;;;;;;;35.95;7.32;;;8.20;99.90;;;;;;5085539;28;20119;-74